Time;durP1;ratioP1;P1;durP2;ratioP2;P2;SDS_P1;SDS_P2;PMS_P1;PMS_P2;Temp;Humidity;BMP_temperature;BMP_pressure;BME280_temperature;BME280_humidity;BME280_pressure;Samples;Min_cycle;Max_cycle;Signal;HPM_P1;HPM_P2
2021/04/15 00:00:16;;;;;;;9.40;6.18;;;4.60;85.10;;;;;;2072465;28;20085;-70
2021/04/15 00:01:19;;;;;;;10.73;5.93;;;4.60;85.40;;;;;;2072636;28;20072;-70
2021/04/15 00:02:19;;;;;;;10.23;6.10;;;4.60;85.50;;;;;;2072381;28;20044;-70
2021/04/15 00:03:26;;;;;;;10.20;6.07;;;4.60;86.10;;;;;;2079896;28;20028;-70
2021/04/15 00:04:27;;;;;;;8.23;6.18;;;4.60;86.00;;;;;;2071821;28;20136;-70
2021/04/15 00:05:30;;;;;;;10.60;6.05;;;4.60;86.10;;;;;;2071796;28;20041;-70
2021/04/15 00:06:31;;;;;;;9.50;6.10;;;4.60;86.20;;;;;;2072033;28;20029;-70
2021/04/15 00:07:31;;;;;;;9.32;5.57;;;4.50;86.30;;;;;;2072375;28;20041;-70
2021/04/15 00:08:32;;;;;;;9.07;6.22;;;4.60;86.30;;;;;;2079965;28;20515;-70
2021/04/15 00:09:33;;;;;;;12.73;6.05;;;4.50;86.20;;;;;;2079954;28;20049;-70
2021/04/15 00:10:37;;;;;;;8.55;5.47;;;4.50;86.10;;;;;;2072337;28;20057;-70
2021/04/15 00:11:39;;;;;;;10.30;5.57;;;4.60;86.00;;;;;;2072294;28;20041;-70
2021/04/15 00:12:40;;;;;;;8.98;5.75;;;4.60;85.70;;;;;;2072349;28;20026;-70
2021/04/15 00:13:45;;;;;;;9.85;5.40;;;4.50;85.90;;;;;;2072291;28;20132;-70
2021/04/15 00:14:46;;;;;;;8.88;5.90;;;4.60;86.10;;;;;;2072336;28;20084;-70
2021/04/15 00:15:46;;;;;;;6.97;5.40;;;4.50;85.90;;;;;;2071996;28;20531;-70
2021/04/15 00:16:48;;;;;;;12.98;6.22;;;4.50;86.00;;;;;;2071697;28;20041;-71
2021/04/15 00:17:49;;;;;;;13.40;5.93;;;4.50;86.30;;;;;;2071899;28;20033;-70
2021/04/15 00:18:50;;;;;;;8.70;5.50;;;4.50;85.10;;;;;;2072448;28;20128;-70
2021/04/15 00:19:50;;;;;;;10.38;5.10;;;4.40;84.80;;;;;;2079896;28;20026;-70
2021/04/15 00:20:51;;;;;;;9.98;5.70;;;4.40;84.80;;;;;;2079921;28;20021;-70
2021/04/15 00:21:52;;;;;;;11.43;5.55;;;4.40;85.10;;;;;;2072249;28;20030;-70
2021/04/15 00:22:53;;;;;;;10.18;5.10;;;4.40;85.10;;;;;;2072320;28;20089;-70
2021/04/15 00:23:54;;;;;;;8.45;5.50;;;4.40;85.00;;;;;;2072250;28;20117;-69
2021/04/15 00:24:55;;;;;;;10.30;5.55;;;4.40;84.70;;;;;;2071794;28;20029;-69
2021/04/15 00:25:56;;;;;;;9.50;5.75;;;4.50;84.60;;;;;;2071846;28;20473;-69
2021/04/15 00:26:56;;;;;;;8.80;5.53;;;4.50;84.30;;;;;;2072201;28;20029;-69
2021/04/15 00:27:57;;;;;;;9.13;5.50;;;4.40;84.20;;;;;;2072255;28;20030;-69
2021/04/15 00:28:58;;;;;;;8.77;5.32;;;4.40;84.10;;;;;;2071487;28;20029;-69
2021/04/15 00:29:59;;;;;;;9.02;5.55;;;4.40;84.30;;;;;;2071616;28;20056;-69
2021/04/15 00:30:59;;;;;;;11.52;6.10;;;4.40;84.50;;;;;;2072232;28;20042;-68
2021/04/15 00:32:00;;;;;;;9.40;6.10;;;4.40;85.00;;;;;;2072126;28;20570;-68
2021/04/15 00:33:05;;;;;;;10.77;5.85;;;4.40;85.00;;;;;;2072184;28;20056;-69
2021/04/15 00:34:06;;;;;;;9.13;5.90;;;4.40;85.30;;;;;;2071528;28;20057;-68
2021/04/15 00:35:08;;;;;;;9.23;5.57;;;4.30;85.20;;;;;;2071596;28;20013;-71
2021/04/15 00:36:09;;;;;;;8.80;5.78;;;4.30;85.10;;;;;;2071139;28;20040;-70
2021/04/15 00:37:11;;;;;;;8.48;5.35;;;4.30;85.20;;;;;;2071446;28;20113;-70
2021/04/15 00:38:12;;;;;;;10.93;5.55;;;4.30;85.10;;;;;;2071364;28;20053;-70
2021/04/15 00:39:13;;;;;;;9.48;5.68;;;4.30;85.00;;;;;;2071606;28;20050;-71
2021/04/15 00:40:16;;;;;;;10.57;5.60;;;4.30;85.80;;;;;;2072185;28;20029;-70
2021/04/15 00:41:17;;;;;;;11.07;5.82;;;4.30;85.70;;;;;;2072016;28;20035;-69
2021/04/15 00:42:17;;;;;;;9.95;5.45;;;4.30;85.00;;;;;;2072141;28;20029;-71
2021/04/15 00:43:22;;;;;;;9.55;5.30;;;4.30;84.90;;;;;;2072101;28;20497;-70
2021/04/15 00:44:23;;;;;;;9.40;5.50;;;4.30;85.00;;;;;;2072237;28;20405;-69
2021/04/15 00:45:33;;;;;;;8.85;5.03;;;4.30;84.80;;;;;;2072028;28;20034;-70
2021/04/15 00:46:42;;;;;;;7.85;5.22;;;4.30;84.70;;;;;;2079309;28;20037;-70
2021/04/15 00:47:46;;;;;;;9.35;5.55;;;4.30;85.00;;;;;;2071553;28;20413;-70
2021/04/15 00:48:47;;;;;;;9.02;5.63;;;4.30;85.10;;;;;;2071614;28;20459;-70
2021/04/15 00:49:54;;;;;;;10.68;5.97;;;4.30;85.20;;;;;;2072237;28;20030;-70
2021/04/15 00:51:23;;;;;;;8.57;5.30;;;4.20;85.40;;;;;;2072179;28;20037;-70
2021/04/15 00:52:27;;;;;;;9.43;5.38;;;4.30;85.70;;;;;;2072145;28;20553;-70
2021/04/15 00:53:37;;;;;;;8.48;5.45;;;4.20;85.60;;;;;;2071550;28;20080;-70
2021/04/15 00:54:43;;;;;;;;;;;4.20;85.90;;;;;;2071766;28;20489;-70
2021/04/15 00:55:43;;;;;;;11.18;5.70;;;4.20;85.90;;;;;;2071813;28;19913;-70
2021/04/15 00:56:44;;;;;;;10.00;6.00;;;4.20;86.10;;;;;;2072160;28;20022;-70
2021/04/15 00:57:48;;;;;;;9.95;5.85;;;4.20;86.20;;;;;;2079604;28;20059;-70
2021/04/15 00:58:50;;;;;;;9.80;5.70;;;4.20;86.40;;;;;;2079347;28;20029;-70
2021/04/15 00:59:51;;;;;;;8.13;5.50;;;4.10;86.30;;;;;;2072236;28;20033;-70
2021/04/15 01:00:52;;;;;;;10.85;5.53;;;4.10;86.30;;;;;;2072120;28;20397;-71
2021/04/15 01:01:53;;;;;;;8.18;5.70;;;4.10;86.60;;;;;;2073459;28;20022;-70
2021/04/15 01:02:55;;;;;;;10.93;5.78;;;4.10;87.20;;;;;;2073781;28;20472;-70
2021/04/15 01:03:56;;;;;;;9.48;6.00;;;4.10;87.40;;;;;;2073768;28;20480;-70
2021/04/15 01:04:59;;;;;;;12.68;6.30;;;4.00;87.60;;;;;;2073791;28;20055;-70
2021/04/15 01:06:00;;;;;;;10.38;6.13;;;4.00;88.00;;;;;;2073246;28;20113;-70
2021/04/15 01:07:00;;;;;;;11.98;6.30;;;4.00;87.90;;;;;;2073624;28;20664;-70
2021/04/15 01:08:03;;;;;;;8.95;6.60;;;4.00;88.00;;;;;;2073035;28;20033;-70
2021/04/15 01:09:04;;;;;;;8.95;6.10;;;4.00;88.20;;;;;;2073197;28;20044;-70
2021/04/15 01:10:05;;;;;;;9.38;6.10;;;3.90;88.20;;;;;;2074521;28;20044;-70
2021/04/15 01:11:31;;;;;;;12.27;6.70;;;3.90;88.50;;;;;;2073901;28;20079;-71
2021/04/15 01:13:09;;;;;;;11.77;6.45;;;3.90;88.60;;;;;;2078811;28;20052;-70
2021/04/15 01:14:28;;;;;;;10.43;6.18;;;3.90;88.80;;;;;;2076765;28;20026;-70
2021/04/15 02:14:45;;;;;;;11.65;5.72;;;3.50;90.30;;;;;;2073345;28;20029;-69
2021/04/15 02:15:50;;;;;;;9.27;5.72;;;3.50;90.20;;;;;;2072295;28;20037;-70
2021/04/15 02:16:53;;;;;;;9.77;5.43;;;3.50;90.10;;;;;;2072596;28;20071;-69
2021/04/15 02:18:06;;;;;;;8.85;5.82;;;3.50;90.10;;;;;;2067680;28;20524;-69
2021/04/15 02:19:11;;;;;;;9.40;5.30;;;3.60;90.10;;;;;;2072337;28;20401;-69
2021/04/15 02:20:16;;;;;;;8.07;5.30;;;3.60;90.00;;;;;;2073115;28;20088;-69
2021/04/15 02:21:33;;;;;;;10.88;5.80;;;3.60;89.80;;;;;;2065614;28;20015;-69
2021/04/15 02:22:53;;;;;;;7.40;5.45;;;3.60;89.50;;;;;;2073218;28;20072;-69
2021/04/15 02:24:04;;;;;;;12.07;5.60;;;3.60;88.90;;;;;;2073343;28;20032;-70
2021/04/15 02:25:49;;;;;;;10.55;5.70;;;3.70;89.60;;;;;;2072759;28;20261;-69
2021/04/15 02:26:55;;;;;;;8.48;5.45;;;3.70;89.00;;;;;;2039946;29;20177;-69
2021/04/15 02:28:01;;;;;;;9.18;5.65;;;3.70;89.60;;;;;;2040159;29;20515;-69
2021/04/15 02:29:09;;;;;;;12.35;6.15;;;3.60;89.70;;;;;;2048897;28;20595;-69
2021/04/15 02:30:13;;;;;;;10.30;6.13;;;3.60;89.50;;;;;;2073218;28;20030;-69
2021/04/15 02:31:19;;;;;;;8.93;6.10;;;3.60;89.60;;;;;;2073085;28;20045;-69
2021/04/15 02:32:29;;;;;;;13.05;6.22;;;3.60;89.40;;;;;;2073042;28;20129;-69
2021/04/15 02:33:47;;;;;;;10.15;6.18;;;3.60;89.30;;;;;;2073142;28;20026;-69
2021/04/15 02:34:56;;;;;;;9.95;6.22;;;3.60;89.50;;;;;;2080733;28;20108;-69
2021/04/15 02:36:03;;;;;;;9.93;5.90;;;3.60;89.40;;;;;;2079211;28;20055;-69
2021/04/15 02:37:15;;;;;;;9.85;6.03;;;3.60;89.30;;;;;;2072915;28;20050;-69
2021/04/15 02:38:20;;;;;;;10.02;6.43;;;3.50;89.20;;;;;;2064778;28;20038;-69
2021/04/15 02:39:34;;;;;;;9.32;6.07;;;3.50;89.30;;;;;;2072514;28;20046;-69
2021/04/15 02:40:41;;;;;;;10.02;6.03;;;3.50;89.50;;;;;;2073037;28;20025;-69
2021/04/15 02:41:45;;;;;;;8.68;5.78;;;3.50;89.70;;;;;;2072958;28;20757;-70
2021/04/15 02:42:46;;;;;;;11.73;6.80;;;3.50;89.80;;;;;;2071225;28;20014;-69
2021/04/15 02:43:55;;;;;;;13.43;6.55;;;3.50;89.90;;;;;;2064434;28;20117;-70
2021/04/15 02:45:02;;;;;;;10.30;6.43;;;3.50;90.00;;;;;;2065353;28;20081;-70
2021/04/15 02:46:11;;;;;;;12.32;6.80;;;3.60;89.90;;;;;;2072436;28;20026;-70
2021/04/15 02:47:17;;;;;;;9.88;6.28;;;3.50;89.80;;;;;;2073291;28;20080;-70
2021/04/15 02:48:29;;;;;;;10.48;6.82;;;3.50;89.90;;;;;;2072978;28;20096;-70
2021/04/15 02:49:32;;;;;;;10.77;6.82;;;3.50;90.00;;;;;;2072028;28;20026;-70
2021/04/15 02:50:34;;;;;;;13.05;7.30;;;3.50;90.10;;;;;;2067646;28;20033;-70
2021/04/15 02:51:46;;;;;;;10.38;7.28;;;3.60;90.20;;;;;;2073001;28;20044;-70
2021/04/15 02:52:52;;;;;;;10.57;7.00;;;3.50;90.40;;;;;;2080489;28;20521;-70
2021/04/15 02:53:59;;;;;;;11.43;7.22;;;3.50;90.60;;;;;;2080279;28;20013;-69
2021/04/15 02:55:05;;;;;;;9.77;6.65;;;3.50;90.60;;;;;;2072859;28;20551;-69
2021/04/15 02:56:28;;;;;;;10.93;7.30;;;3.50;90.80;;;;;;2072832;28;20622;-70
2021/04/15 02:57:34;;;;;;;12.27;7.47;;;3.50;90.90;;;;;;2073062;28;20038;-70
2021/04/15 02:58:53;;;;;;;10.65;7.63;;;3.50;90.70;;;;;;2072528;28;20014;-70
2021/04/15 03:00:05;;;;;;;14.23;7.50;;;3.50;90.90;;;;;;2072680;28;20631;-70
2021/04/15 03:01:08;;;;;;;13.48;8.23;;;3.50;90.80;;;;;;2072453;28;20029;-70
2021/04/15 03:02:23;;;;;;;15.48;8.00;;;3.40;90.70;;;;;;2072711;28;20022;-70
2021/04/15 03:03:34;;;;;;;13.77;7.30;;;3.50;90.70;;;;;;2072764;28;20026;-70
2021/04/15 03:04:38;;;;;;;12.80;7.43;;;3.40;90.60;;;;;;2072842;28;20034;-70
2021/04/15 03:05:46;;;;;;;9.88;7.30;;;3.50;90.80;;;;;;2073591;28;20026;-70
2021/04/15 03:06:48;;;;;;;11.55;7.35;;;3.50;91.00;;;;;;2073982;28;20449;-69
2021/04/15 03:07:53;;;;;;;12.70;7.45;;;3.50;91.00;;;;;;2081333;28;20025;-69
2021/04/15 03:09:00;;;;;;;11.02;7.80;;;3.50;91.10;;;;;;2081986;28;20104;-70
2021/04/15 03:10:03;;;;;;;12.07;7.80;;;3.50;91.20;;;;;;2079903;28;20044;-70
2021/04/15 03:11:19;;;;;;;15.75;8.43;;;3.50;91.00;;;;;;2080275;28;20044;-70
2021/04/15 03:12:26;;;;;;;12.32;8.32;;;3.50;90.90;;;;;;2072476;28;20117;-70
2021/04/15 03:13:36;;;;;;;17.58;8.23;;;3.40;91.00;;;;;;2080928;28;20030;-70
2021/04/15 03:15:06;;;;;;;14.75;8.02;;;3.40;90.90;;;;;;2078801;28;20022;-70
2021/04/15 03:16:07;;;;;;;13.27;8.27;;;3.40;90.90;;;;;;2068251;28;20564;-70
2021/04/15 03:17:09;;;;;;;13.60;7.95;;;3.40;90.90;;;;;;2072241;28;20022;-70
2021/04/15 03:18:18;;;;;;;14.30;8.10;;;3.30;91.00;;;;;;2072225;28;20026;-70
2021/04/15 03:19:38;;;;;;;15.07;8.25;;;3.30;91.10;;;;;;2071505;28;20679;-70
2021/04/15 03:20:54;;;;;;;13.30;7.75;;;3.30;91.30;;;;;;2080318;28;20415;-70
2021/04/15 03:22:18;;;;;;;14.18;7.60;;;3.20;90.90;;;;;;2078528;28;20392;-70
2021/04/15 03:23:40;;;;;;;13.05;7.80;;;3.20;90.90;;;;;;2072761;28;20026;-70
2021/04/15 03:24:52;;;;;;;14.13;7.45;;;3.20;90.90;;;;;;2072284;28;20061;-70
2021/04/15 03:25:56;;;;;;;13.55;8.07;;;3.10;90.70;;;;;;2067243;28;20460;-70
2021/04/15 03:27:28;;;;;;;12.43;7.93;;;3.10;90.70;;;;;;2070599;28;20393;-70
2021/04/15 03:28:39;;;;;;;13.15;7.40;;;3.10;90.80;;;;;;2072165;28;20044;-70
2021/04/15 03:30:04;;;;;;;11.85;7.32;;;3.10;90.90;;;;;;2072332;28;20062;-70
2021/04/15 03:31:09;;;;;;;12.75;7.50;;;3.10;90.90;;;;;;2073046;28;20404;-70
2021/04/15 03:32:28;;;;;;;14.55;8.07;;;3.10;90.80;;;;;;2072131;28;20022;-68
2021/04/15 03:33:44;;;;;;;13.68;7.93;;;3.10;90.90;;;;;;2072593;28;20109;-71
2021/04/15 03:35:05;;;;;;;15.00;7.57;;;3.10;90.70;;;;;;2072859;28;20044;-68
2021/04/15 03:36:16;;;;;;;13.68;7.40;;;3.00;90.50;;;;;;2072298;28;20022;-70
2021/04/15 03:37:28;;;;;;;14.32;7.90;;;3.00;90.40;;;;;;2072913;28;20018;-70
2021/04/15 03:38:33;;;;;;;11.38;7.55;;;3.00;90.50;;;;;;2072774;28;20104;-70
2021/04/15 03:39:36;;;;;;;14.52;8.10;;;3.00;90.60;;;;;;2072820;28;20084;-70
2021/04/15 03:40:42;;;;;;;12.57;7.55;;;3.00;90.70;;;;;;2072773;28;20026;-70
2021/04/15 03:41:47;;;;;;;15.95;7.57;;;3.00;90.50;;;;;;2072734;28;20025;-70
2021/04/15 03:42:53;;;;;;;12.57;7.50;;;3.00;90.50;;;;;;2072706;28;20069;-70
2021/04/15 03:43:59;;;;;;;12.38;7.78;;;3.00;90.50;;;;;;2072698;28;20028;-70
2021/04/15 03:45:12;;;;;;;12.15;8.65;;;3.00;90.60;;;;;;2080078;28;20088;-69
2021/04/15 03:46:26;;;;;;;12.25;7.70;;;3.00;90.80;;;;;;2071997;28;20030;-69
2021/04/15 03:47:35;;;;;;;11.75;7.38;;;3.00;90.60;;;;;;2073216;28;20037;-70
2021/04/15 03:48:47;;;;;;;12.32;7.63;;;2.90;90.30;;;;;;2073111;28;20018;-70
2021/04/15 03:49:57;;;;;;;10.75;7.03;;;2.90;90.40;;;;;;2072679;28;20033;-70
2021/04/15 03:51:03;;;;;;;12.30;6.80;;;2.90;90.50;;;;;;2072658;28;20029;-70
2021/04/15 03:52:14;;;;;;;12.23;7.38;;;2.80;90.20;;;;;;2072590;28;20660;-70
2021/04/15 03:53:22;;;;;;;13.15;6.88;;;2.80;90.20;;;;;;2071981;28;20108;-70
2021/04/15 03:54:29;;;;;;;10.00;6.28;;;2.80;90.20;;;;;;2072150;28;20022;-70
2021/04/15 03:55:42;;;;;;;11.30;6.15;;;2.80;89.60;;;;;;2072766;28;20084;-70
2021/04/15 03:56:49;;;;;;;9.85;6.15;;;2.80;89.50;;;;;;2071669;28;20086;-70
2021/04/15 03:57:53;;;;;;;9.48;6.43;;;2.70;89.30;;;;;;2072032;28;20030;-70
2021/04/15 03:59:00;;;;;;;11.18;6.20;;;2.70;88.90;;;;;;2072661;28;20025;-70
2021/04/15 04:00:04;;;;;;;10.77;5.85;;;2.70;88.60;;;;;;2072647;28;20105;-70
2021/04/15 04:01:22;;;;;;;9.48;5.63;;;2.70;88.60;;;;;;2072671;28;20033;-70
2021/04/15 04:02:32;;;;;;;11.00;6.28;;;2.70;88.80;;;;;;2072545;28;20061;-70
2021/04/15 04:03:36;;;;;;;10.45;5.80;;;2.70;89.00;;;;;;2072006;28;20034;-70
2021/04/15 04:04:44;;;;;;;10.93;6.05;;;2.70;88.70;;;;;;2068694;28;20084;-70
2021/04/15 04:05:54;;;;;;;10.90;6.28;;;2.60;88.70;;;;;;2067868;28;20018;-70
2021/04/15 04:06:58;;;;;;;9.48;5.82;;;2.60;88.70;;;;;;2073082;28;20136;-70
2021/04/15 04:08:03;;;;;;;10.52;5.50;;;2.70;88.50;;;;;;2079616;28;20051;-70
2021/04/15 04:09:13;;;;;;;10.80;6.50;;;2.70;88.50;;;;;;2071910;28;20022;-70
2021/04/15 04:10:19;;;;;;;11.88;6.25;;;2.70;88.50;;;;;;2070903;28;20064;-70
2021/04/15 04:11:22;;;;;;;11.07;5.93;;;2.70;88.50;;;;;;2071635;28;20022;-70
2021/04/15 04:12:33;;;;;;;11.43;5.90;;;2.60;88.20;;;;;;2065677;28;20034;-70
2021/04/15 04:13:37;;;;;;;11.50;6.03;;;2.60;88.30;;;;;;2072467;28;20024;-70
2021/04/15 04:14:52;;;;;;;9.80;5.90;;;2.60;88.80;;;;;;2071995;28;20017;-70
2021/04/15 04:16:01;;;;;;;12.07;6.30;;;2.60;88.70;;;;;;2065217;28;20030;-70
2021/04/15 04:17:12;;;;;;;12.93;5.82;;;2.60;88.90;;;;;;2071916;28;20017;-70
2021/04/15 04:18:18;;;;;;;9.77;6.15;;;2.60;88.90;;;;;;2072617;28;20030;-70
2021/04/15 04:19:38;;;;;;;9.13;5.90;;;2.60;88.80;;;;;;2072791;28;20021;-69
2021/04/15 04:20:41;;;;;;;9.63;6.28;;;2.60;88.60;;;;;;2071781;28;20030;-69
2021/04/15 04:21:51;;;;;;;11.52;6.22;;;2.60;88.60;;;;;;2072580;28;20018;-70
2021/04/15 04:22:57;;;;;;;12.18;6.72;;;2.60;88.70;;;;;;2073063;28;20389;-70
2021/04/15 04:24:14;;;;;;;10.20;5.72;;;2.60;88.70;;;;;;2072571;28;20026;-70
2021/04/15 04:25:29;;;;;;;10.60;6.25;;;2.60;88.50;;;;;;2072245;28;20096;-69
2021/04/15 04:26:36;;;;;;;11.45;6.30;;;2.60;88.50;;;;;;2078139;28;20749;-69
2021/04/15 04:27:59;;;;;;;13.48;6.68;;;2.60;88.70;;;;;;2071816;28;20022;-70
2021/04/15 04:29:36;;;;;;;11.32;6.18;;;2.60;88.60;;;;;;2070736;28;20494;-70
2021/04/15 04:30:38;;;;;;;9.50;5.88;;;2.60;88.60;;;;;;2064138;28;20405;-69
2021/04/15 04:31:43;;;;;;;9.63;5.88;;;2.60;88.50;;;;;;2068579;28;20031;-69
2021/04/15 04:32:46;;;;;;;11.18;6.05;;;2.60;88.40;;;;;;2071818;28;20036;-69
2021/04/15 04:33:50;;;;;;;9.52;6.38;;;2.60;88.30;;;;;;2068562;28;20105;-69
2021/04/15 04:34:57;;;;;;;10.65;5.88;;;2.60;88.40;;;;;;2067115;28;20045;-69
2021/04/15 04:35:57;;;;;;;10.05;6.30;;;2.60;88.50;;;;;;2063996;28;20038;-69
2021/04/15 04:36:59;;;;;;;10.73;6.38;;;2.60;88.20;;;;;;2064337;28;20015;-69
2021/04/15 04:38:09;;;;;;;8.57;5.90;;;2.60;88.00;;;;;;2071311;28;20026;-69
2021/04/15 04:39:13;;;;;;;9.85;6.07;;;2.60;88.10;;;;;;2072231;28;20021;-69
2021/04/15 04:40:31;;;;;;;11.75;6.30;;;2.60;88.20;;;;;;2072018;28;20033;-69
2021/04/15 04:41:50;;;;;;;12.43;6.75;;;2.60;88.50;;;;;;2066855;28;20033;-69
2021/04/15 04:43:00;;;;;;;12.40;6.95;;;2.70;88.40;;;;;;2067557;28;20105;-69
2021/04/15 04:44:07;;;;;;;14.45;6.82;;;2.70;88.50;;;;;;2070782;28;20022;-70
2021/04/15 04:45:09;;;;;;;10.00;6.47;;;2.70;88.60;;;;;;2072491;28;20625;-70
2021/04/15 04:46:40;;;;;;;9.45;6.10;;;2.70;88.90;;;;;;2072189;28;20053;-69
2021/04/15 04:47:50;;;;;;;9.15;6.20;;;2.70;89.20;;;;;;2068403;28;20026;-69
2021/04/15 04:48:56;;;;;;;12.05;6.70;;;2.70;89.20;;;;;;2073083;28;20026;-69
2021/04/15 04:50:11;;;;;;;12.48;6.85;;;2.70;89.30;;;;;;2066375;28;20018;-69
2021/04/15 04:51:18;;;;;;;15.70;8.38;;;2.80;89.70;;;;;;2074390;28;20018;-71
2021/04/15 04:52:24;;;;;;;13.18;7.25;;;2.80;89.20;;;;;;2072258;28;20072;-70
2021/04/15 04:53:26;;;;;;;12.63;7.97;;;2.80;89.80;;;;;;2073355;28;20018;-70
2021/04/15 04:54:28;;;;;;;12.85;7.15;;;2.80;89.90;;;;;;2080473;28;20103;-71
2021/04/15 04:55:44;;;;;;;12.05;7.00;;;2.80;89.80;;;;;;2066484;28;20037;-70
2021/04/15 04:56:51;;;;;;;13.63;7.55;;;2.80;89.20;;;;;;2066251;28;20480;-70
2021/04/15 04:57:52;;;;;;;12.13;7.35;;;2.80;89.10;;;;;;2064348;28;20070;-69
2021/04/15 04:59:13;;;;;;;9.70;6.55;;;2.80;89.40;;;;;;2069735;28;20022;-69
2021/04/15 05:00:18;;;;;;;12.00;7.72;;;2.80;89.10;;;;;;2065079;28;20050;-69
2021/04/15 05:01:19;;;;;;;14.38;7.45;;;2.80;88.60;;;;;;2066067;28;20066;-70
2021/04/15 05:02:20;;;;;;;12.60;7.40;;;2.90;88.60;;;;;;2071972;28;20052;-73
2021/04/15 05:03:23;;;;;;;13.07;7.35;;;2.80;88.60;;;;;;2072064;28;20033;-73
2021/04/15 05:04:28;;;;;;;14.77;7.32;;;2.80;88.10;;;;;;2079944;28;20026;-70
2021/04/15 05:05:30;;;;;;;15.20;7.57;;;2.80;88.00;;;;;;2080150;28;20029;-72
2021/04/15 05:06:33;;;;;;;16.75;7.93;;;2.80;88.30;;;;;;2079918;28;20037;-72
2021/04/15 05:07:36;;;;;;;14.80;7.88;;;2.80;89.40;;;;;;2073024;28;20029;-71
2021/04/15 05:09:12;;;;;;;15.85;7.55;;;2.90;90.10;;;;;;2073015;28;20018;-72
2021/04/15 05:10:18;;;;;;;14.10;7.32;;;2.90;90.20;;;;;;2024385;29;20544;-71
2021/04/15 05:11:19;;;;;;;11.98;7.70;;;2.90;90.30;;;;;;2030951;29;20032;-73
2021/04/15 05:12:31;;;;;;;13.70;7.60;;;2.90;89.90;;;;;;2032116;28;20578;-71
2021/04/15 05:13:33;;;;;;;13.85;8.30;;;2.90;89.80;;;;;;2070166;28;20076;-71
2021/04/15 05:14:34;;;;;;;17.23;7.80;;;2.90;90.10;;;;;;2075622;28;20092;-72
2021/04/15 05:15:36;;;;;;;16.42;7.85;;;2.90;89.50;;;;;;2080211;28;20040;-71
2021/04/15 05:16:45;;;;;;;14.35;8.02;;;2.80;89.40;;;;;;2069749;28;20066;-72
2021/04/15 05:17:46;;;;;;;14.70;7.97;;;2.80;88.80;;;;;;2065097;28;20018;-71
2021/04/15 05:18:47;;;;;;;15.63;8.20;;;2.80;89.00;;;;;;2069465;28;20033;-71
2021/04/15 05:19:48;;;;;;;13.38;8.25;;;2.70;88.80;;;;;;2071961;28;20030;-74
2021/04/15 05:20:54;;;;;;;15.52;7.97;;;2.70;89.30;;;;;;2063931;28;20022;-73
2021/04/15 05:21:56;;;;;;;15.75;7.82;;;2.70;89.40;;;;;;2069683;28;20029;-72
2021/04/15 05:23:12;;;;;;;16.02;8.13;;;2.80;90.00;;;;;;2066506;28;20034;-73
2021/04/15 05:24:26;;;;;;;16.33;8.40;;;2.80;89.70;;;;;;2071996;28;20072;-73
2021/04/15 05:25:42;;;;;;;13.60;7.72;;;2.80;89.40;;;;;;2064379;28;20042;-72
2021/04/15 05:26:44;;;;;;;13.55;7.28;;;2.90;90.00;;;;;;2068035;28;20037;-72
2021/04/15 05:27:44;;;;;;;17.45;7.90;;;2.90;89.30;;;;;;2072284;28;20014;-71
2021/04/15 05:28:48;;;;;;;17.92;7.75;;;2.90;89.10;;;;;;2067673;28;20601;-73
2021/04/15 05:29:59;;;;;;;12.75;7.78;;;2.80;88.80;;;;;;2068768;28;20901;-71
2021/04/15 05:31:07;;;;;;;20.02;8.52;;;2.80;89.20;;;;;;2071879;28;20068;-72
2021/04/15 05:32:15;;;;;;;17.27;8.45;;;2.90;89.60;;;;;;2072748;28;20673;-72
2021/04/15 05:33:23;;;;;;;17.33;7.88;;;2.90;89.50;;;;;;2070962;28;20104;-73
2021/04/15 05:34:31;;;;;;;18.90;7.70;;;2.90;89.50;;;;;;2064032;28;20494;-71
2021/04/15 05:35:37;;;;;;;13.75;7.32;;;3.00;88.50;;;;;;2066683;28;20061;-70
2021/04/15 05:36:39;;;;;;;15.18;7.50;;;2.90;88.00;;;;;;2064488;28;20049;-71
2021/04/15 05:37:40;;;;;;;15.57;8.13;;;2.90;88.20;;;;;;2072133;28;20099;-70
2021/04/15 05:38:46;;;;;;;14.10;7.25;;;2.90;88.20;;;;;;2072583;28;20085;-70
2021/04/15 05:39:47;;;;;;;18.75;8.00;;;3.00;88.30;;;;;;2068525;28;20031;-70
2021/04/15 05:40:51;;;;;;;15.00;7.38;;;3.00;88.50;;;;;;2069716;28;20033;-70
2021/04/15 05:41:57;;;;;;;16.83;7.95;;;3.00;88.40;;;;;;2073176;28;20760;-70
2021/04/15 05:43:15;;;;;;;17.33;7.60;;;3.00;87.70;;;;;;2066750;28;20031;-71
2021/04/15 05:44:23;;;;;;;14.98;7.60;;;3.00;87.30;;;;;;2072712;28;20500;-71
2021/04/15 05:45:27;;;;;;;14.45;8.00;;;3.00;86.90;;;;;;2073937;28;20084;-71
2021/04/15 05:46:36;;;;;;;19.05;8.10;;;3.00;86.80;;;;;;2069811;28;20065;-71
2021/04/15 05:47:59;;;;;;;16.77;7.55;;;3.00;87.30;;;;;;2072885;28;20033;-72
2021/04/15 05:49:02;;;;;;;15.70;7.75;;;3.10;87.60;;;;;;2077221;28;20022;-71
2021/04/15 05:50:11;;;;;;;15.90;7.68;;;3.10;86.50;;;;;;2073508;28;20037;-71
2021/04/15 05:51:22;;;;;;;12.07;7.78;;;3.10;86.80;;;;;;2073675;28;20449;-71
2021/04/15 05:52:43;;;;;;;15.20;8.18;;;3.20;87.10;;;;;;2074266;28;20030;-71
2021/04/15 05:53:49;;;;;;;14.82;7.47;;;3.20;86.40;;;;;;2073873;28;20026;-72
2021/04/15 05:54:52;;;;;;;15.07;7.28;;;3.20;86.20;;;;;;2073271;28;20447;-73
2021/04/15 05:55:57;;;;;;;15.77;7.68;;;3.30;86.20;;;;;;2073887;28;20021;-73
2021/04/15 05:57:09;;;;;;;14.82;8.00;;;3.30;85.70;;;;;;2081448;28;20036;-72
2021/04/15 05:58:21;;;;;;;15.93;8.07;;;3.40;85.60;;;;;;2082007;28;20109;-72
2021/04/15 05:59:49;;;;;;;15.00;7.85;;;3.40;85.60;;;;;;2079878;28;20017;-72
2021/04/15 06:00:56;;;;;;;18.50;8.50;;;3.40;85.60;;;;;;2073591;28;20678;-71
2021/04/15 06:02:11;;;;;;;17.65;7.90;;;3.40;84.30;;;;;;2073361;28;20524;-71
2021/04/15 06:03:35;;;;;;;13.77;8.52;;;3.40;84.10;;;;;;2072901;28;20026;-72
2021/04/15 06:04:44;;;;;;;18.15;8.07;;;3.40;84.70;;;;;;2072899;28;20026;-72
2021/04/15 06:06:06;;;;;;;17.10;8.40;;;3.50;84.50;;;;;;2067765;28;20072;-71
2021/04/15 06:07:08;;;;;;;17.38;8.13;;;3.50;84.50;;;;;;2067736;28;20080;-71
2021/04/15 06:08:10;;;;;;;17.40;8.30;;;3.50;83.70;;;;;;2065980;28;20022;-71
2021/04/15 06:09:12;;;;;;;14.70;7.90;;;3.50;83.90;;;;;;2073075;28;20073;-71
2021/04/15 06:10:14;;;;;;;15.68;8.13;;;3.50;84.30;;;;;;2072926;28;20098;-72
2021/04/15 06:11:34;;;;;;;16.05;7.55;;;3.50;84.00;;;;;;2073093;28;20018;-71
2021/04/15 06:12:53;;;;;;;16.88;7.72;;;3.60;84.70;;;;;;2070658;28;20030;-71
2021/04/15 06:14:02;;;;;;;22.35;8.23;;;3.60;84.10;;;;;;2071160;28;20061;-72
2021/04/15 06:15:06;;;;;;;13.05;7.65;;;3.70;83.70;;;;;;2067010;28;20105;-73
2021/04/15 06:16:19;;;;;;;15.52;7.72;;;3.70;83.30;;;;;;2072587;28;20033;-71
2021/04/15 06:17:26;;;;;;;17.50;7.97;;;3.70;83.10;;;;;;2080623;28;20025;-74
2021/04/15 06:18:34;;;;;;;15.50;7.88;;;3.70;82.90;;;;;;2074504;28;20021;-73
2021/04/15 06:19:37;;;;;;;13.68;7.63;;;3.70;82.90;;;;;;2073802;28;20017;-72
2021/04/15 06:20:42;;;;;;;17.48;8.10;;;3.70;83.70;;;;;;2072939;28;20022;-73
2021/04/15 06:22:07;;;;;;;17.88;8.38;;;3.80;83.60;;;;;;2065206;28;20371;-72
2021/04/15 06:23:27;;;;;;;15.85;7.38;;;3.80;83.80;;;;;;2061908;28;20031;-71
2021/04/15 06:24:29;;;;;;;14.15;7.95;;;3.90;82.70;;;;;;2066134;28;20037;-71
2021/04/15 06:25:39;;;;;;;15.38;7.25;;;3.90;82.90;;;;;;2073558;28;20089;-72
2021/04/15 06:26:50;;;;;;;15.65;7.32;;;3.90;82.70;;;;;;2073287;28;20025;-72
2021/04/15 06:27:50;;;;;;;16.27;7.85;;;4.00;83.20;;;;;;2081116;28;20037;-71
2021/04/15 06:28:52;;;;;;;18.25;8.00;;;4.10;82.60;;;;;;2072982;28;20053;-72
2021/04/15 06:30:14;;;;;;;16.23;7.47;;;4.20;82.40;;;;;;2073124;28;20112;-71
2021/04/15 06:31:28;;;;;;;11.98;7.53;;;4.30;81.80;;;;;;2070762;28;20026;-71
2021/04/15 06:32:38;;;;;;;28.95;8.20;;;4.30;81.40;;;;;;2073005;28;20068;-71
2021/04/15 06:33:41;;;;;;;17.05;7.63;;;4.40;81.60;;;;;;2073200;28;20022;-72
2021/04/15 06:34:42;;;;;;;14.35;7.28;;;4.40;81.50;;;;;;2073725;28;20036;-71
2021/04/15 06:35:45;;;;;;;15.48;7.38;;;4.50;81.50;;;;;;2069238;28;20034;-71
2021/04/15 06:36:53;;;;;;;19.92;8.07;;;4.60;81.20;;;;;;2069742;28;20092;-72
2021/04/15 06:38:05;;;;;;;14.80;7.53;;;4.70;80.60;;;;;;2073316;28;20140;-72
2021/04/15 06:39:22;;;;;;;15.07;7.57;;;4.70;80.20;;;;;;2066574;28;20058;-71
2021/04/15 06:40:57;;;;;;;11.93;7.60;;;4.80;80.30;;;;;;2066939;28;20022;-72
2021/04/15 06:42:26;;;;;;;17.02;7.38;;;4.90;79.40;;;;;;2073017;28;20492;-70
2021/04/15 06:44:01;;;;;;;15.43;7.65;;;5.00;78.60;;;;;;2073492;28;20570;-71
2021/04/15 06:45:29;;;;;;;16.25;8.60;;;4.90;78.30;;;;;;2072519;28;20017;-70
2021/04/15 06:47:01;;;;;;;15.93;8.05;;;5.00;78.40;;;;;;2073548;28;20129;-70
2021/04/15 06:48:17;;;;;;;13.18;8.10;;;5.00;77.00;;;;;;2075386;28;20025;-69
2021/04/15 06:50:01;;;;;;;15.75;8.25;;;4.90;77.80;;;;;;2073211;28;20040;-70
2021/04/15 06:51:43;;;;;;;16.00;8.07;;;5.10;77.60;;;;;;2073232;28;20050;-69
2021/04/15 06:53:15;;;;;;;14.50;7.78;;;5.20;76.00;;;;;;2040147;29;20533;-70
2021/04/15 06:54:30;;;;;;;16.20;7.90;;;5.30;75.70;;;;;;2077113;28;20026;-70
2021/04/15 06:56:10;;;;;;;13.77;7.80;;;5.40;75.40;;;;;;2067568;28;20030;-71
2021/04/15 06:57:23;;;;;;;15.48;7.65;;;5.30;75.20;;;;;;2073309;28;20064;-71
2021/04/15 06:59:05;;;;;;;14.48;7.82;;;5.30;76.10;;;;;;2073202;28;20060;-70